This is the latest recevied weather packets stored in our database for station/object WC4PEM-15. If no packets are shown the sender has not sent any weather packets the latest 1 day(s).
| Time | Temp. | Humidity | Pressure | Rain* | Wind** | Luminosity | Snow |
|---|---|---|---|---|---|---|---|
| 1836274764 | 23.89° C | 84% | 1016.3 hPa | 0 mm | 1.34 m/s, 76° | - | - |
| 1836274755 | 23.33° C | 88% | 1016.2 hPa | 0 mm | 0.89 m/s, 85° | - | - |
| 1836274579 | 23.89° C | 84% | 1016.3 hPa | 0 mm | 1.34 m/s, 76° | - | - |
| 1836274455 | 23.89° C | 88% | 1016.2 hPa | 0 mm | 0.89 m/s, 178° | - | - |
| 1836274305 | 23.33° C | 88% | 1016.2 hPa | 0 mm | 0.89 m/s, 51° | - | - |
| 1836274283 | 23.89° C | 84% | 1016.3 hPa | 0 mm | 1.34 m/s, 76° | - | - |
| 1836274155 | 23.89° C | 87% | 1016.1 hPa | 0 mm | 0.89 m/s, 63° | - | - |
| 1778041499 | 20.56° C | 80% | 1016.6 hPa | 0 mm | 2.24 m/s, 113° | - | - |
| 1778041235 | 20.56° C | 79% | 1016.5 hPa | 0 mm | 3.13 m/s, 118° | - | - |
| 1778041199 | 20.56° C | 79% | 1016.5 hPa | 0 mm | 2.68 m/s, 123° | - | - |
| 1778040899 | 20.56° C | 79% | 1016.5 hPa | 0 mm | 3.13 m/s, 118° | - | - |
| 1778040790 | 20.56° C | 79% | 1016.4 hPa | 0 mm | 3.13 m/s, 117° | - | - |
| 1778040599 | 20.56° C | 79% | 1016.4 hPa | 0 mm | 3.13 m/s, 117° | - | - |
| 1778040586 | 20.56° C | 78% | 1016.6 hPa | 0 mm | 3.13 m/s, 110° | - | - |
| 1778040299 | 20.56° C | 78% | 1016.6 hPa | 0 mm | 3.13 m/s, 110° | - | - |
| 1778039999 | 20.56° C | 78% | 1016.6 hPa | 0 mm | 2.68 m/s, 108° | - | - |
| 1778039699 | 20.56° C | 78% | 1016.5 hPa | 0 mm | 2.68 m/s, 118° | - | - |
| 1778039399 | 20.56° C | 78% | 1016.5 hPa | 0 mm | 2.68 m/s, 121° | - | - |
| 1778039099 | 20.56° C | 77% | 1016.7 hPa | 0 mm | 2.68 m/s, 115° | - | - |
| 1778038799 | 20.56° C | 77% | 1016.6 hPa | 0 mm | 2.68 m/s, 109° | - | - |
| 1778038499 | 20.56° C | 77% | 1016.6 hPa | 0 mm | 2.68 m/s, 109° | - | - |
| 1778038293 | 20.56° C | 76% | 1016.7 hPa | 0 mm | 3.13 m/s, 102° | - | - |
| 1778038207 | 20.56° C | 76% | 1016.7 hPa | 0 mm | 3.13 m/s, 102° | - | - |
| 1778038199 | 20.56° C | 76% | 1016.7 hPa | 0 mm | 2.68 m/s, 110° | - | - |
| 1778037899 | 20.56° C | 76% | 1016.7 hPa | 0 mm | 3.13 m/s, 102° | - | - |
* Rain latest hour (hover to see other rain measurements)
** Current wind speed in m/s (hover to see current wind gust speed)